Time;durP1;ratioP1;P1;durP2;ratioP2;P2;SDS_P1;SDS_P2;PMS_P1;PMS_P2;Temp;Humidity;BMP_temperature;BMP_pressure;BME280_temperature;BME280_humidity;BME280_pressure;Samples;Min_cycle;Max_cycle;Signal;HPM_P1;HPM_P2
2021/08/14 00:02:07;;;;;;;0.10;0.10;;;;;;;23.63;51.10;99629.78;5098460;28;20024;-75
2021/08/14 00:04:32;;;;;;;0.00;0.00;;;;;;;23.56;51.58;99630.41;5101310;28;20040;-74
2021/08/14 00:06:58;;;;;;;0.00;0.00;;;;;;;23.43;51.88;99631.59;5098135;28;20085;-75
2021/08/14 00:09:23;;;;;;;0.00;0.00;;;;;;;23.33;51.90;99636.41;5102794;28;20036;-75
2021/08/14 00:11:48;;;;;;;0.55;0.20;;;;;;;23.25;51.99;99636.56;5111282;28;20502;-76
2021/08/14 00:14:14;;;;;;;0.00;0.00;;;;;;;23.20;52.30;99639.53;5104824;28;20059;-75
2021/08/14 00:16:39;;;;;;;0.05;0.05;;;;;;;23.12;52.55;99639.31;5091864;28;20028;-76
2021/08/14 00:19:05;;;;;;;0.00;0.00;;;;;;;23.08;52.58;99645.78;5094638;28;20071;-74
2021/08/14 00:21:31;;;;;;;0.10;0.10;;;;;;;23.00;52.72;99639.34;5108224;28;20026;-75
2021/08/14 00:23:56;;;;;;;0.00;0.00;;;;;;;22.93;52.89;99639.91;5091169;28;20074;-76
2021/08/14 00:26:22;;;;;;;0.00;0.00;;;;;;;22.89;52.98;99647.22;5090103;28;20115;-78
2021/08/14 00:28:47;;;;;;;0.10;0.10;;;;;;;22.85;53.00;99640.84;5094513;28;20111;-79
2021/08/14 00:31:12;;;;;;;0.00;0.00;;;;;;;22.84;52.74;99647.47;5107775;28;20027;-80
2021/08/14 00:33:38;;;;;;;0.00;0.00;;;;;;;22.82;53.17;99639.59;5100627;28;20062;-81
2021/08/14 00:36:04;;;;;;;0.00;0.00;;;;;;;22.79;53.36;99643.03;5090928;28;20028;-75
2021/08/14 00:38:29;;;;;;;0.10;0.10;;;;;;;22.77;53.40;99648.03;5102513;28;20027;-76
2021/08/14 00:40:54;;;;;;;0.00;0.00;;;;;;;22.74;53.26;99651.44;5099188;28;20031;-77
2021/08/14 00:43:21;;;;;;;0.00;0.00;;;;;;;22.68;53.52;99656.34;5111511;28;20024;-76
2021/08/14 00:45:46;;;;;;;0.00;0.00;;;;;;;22.62;53.57;99656.91;5110959;28;20039;-76
2021/08/14 00:48:12;;;;;;;0.10;0.10;;;;;;;22.54;53.81;99658.63;5092947;28;20395;-75
2021/08/14 00:50:38;;;;;;;0.10;0.10;;;;;;;22.46;53.93;99654.88;5103502;28;20024;-77
2021/08/14 00:53:05;;;;;;;0.00;0.00;;;;;;;22.37;53.98;99652.25;5109836;28;20024;-75
2021/08/14 00:55:31;;;;;;;0.00;0.00;;;;;;;22.28;54.06;99654.28;5110011;28;20028;-74
2021/08/14 00:57:57;;;;;;;0.08;0.08;;;;;;;22.15;54.70;99655.41;5102172;28;20081;-75
2021/08/14 01:00:25;;;;;;;0.05;0.05;;;;;;;22.00;55.30;99651.41;5093051;28;20411;-75
2021/08/14 01:02:55;;;;;;;0.55;0.55;;;;;;;21.86;55.64;99655.25;5104349;28;20024;-75
2021/08/14 01:05:21;;;;;;;0.10;0.10;;;;;;;21.71;56.05;99653.16;5094626;28;20052;-75
2021/08/14 01:07:49;;;;;;;0.20;0.20;;;;;;;21.56;56.43;99649.94;5111551;28;20065;-75
2021/08/14 01:10:14;;;;;;;0.43;0.43;;;;;;;21.48;57.11;99656.22;5109438;28;20030;-75
2021/08/14 01:12:40;;;;;;;0.00;0.00;;;;;;;21.38;57.18;99657.41;5093039;28;20036;-79
2021/08/14 01:15:06;;;;;;;0.00;0.00;;;;;;;21.28;57.88;99650.47;5089214;28;20044;-79
2021/08/14 01:17:33;;;;;;;0.10;0.10;;;;;;;21.16;58.24;99650.41;5093474;28;20020;-80
2021/08/14 01:19:59;;;;;;;0.10;0.10;;;;;;;21.08;58.70;99654.00;5109731;28;20655;-78
2021/08/14 01:22:24;;;;;;;0.10;0.10;;;;;;;20.98;58.74;99647.03;5103656;28;20123;-77
2021/08/14 01:24:49;;;;;;;0.73;0.30;;;;;;;20.98;59.06;99651.69;5091727;28;20032;-78
2021/08/14 01:27:16;;;;;;;0.00;0.00;;;;;;;20.92;59.33;99643.72;5108059;28;20095;-77
2021/08/14 01:29:41;;;;;;;0.00;0.00;;;;;;;20.93;59.21;99647.22;5112416;28;20055;-76
2021/08/14 01:32:10;;;;;;;0.10;0.10;;;;;;;20.94;59.67;99649.59;5106841;27;20083;-76
2021/08/14 01:34:44;;;;;;;0.00;0.00;;;;;;;20.96;59.75;99654.75;5112794;28;20028;-81
2021/08/14 01:37:10;;;;;;;0.10;0.10;;;;;;;20.94;59.76;99657.75;5113214;28;20118;-80
2021/08/14 01:39:36;;;;;;;0.08;0.08;;;;;;;20.92;59.72;99648.34;5114519;28;20027;-81
2021/08/14 01:42:05;;;;;;;0.80;0.40;;;;;;;20.89;59.88;99651.75;5103455;28;20051;-77
2021/08/14 01:44:32;;;;;;;0.10;0.10;;;;;;;20.95;59.87;99658.56;5107526;28;20039;-76
2021/08/14 01:46:58;;;;;;;0.00;0.00;;;;;;;20.97;59.72;99659.06;5110867;28;20030;-75
2021/08/14 01:49:24;;;;;;;0.38;0.38;;;;;;;21.03;59.61;99657.72;5096704;28;20038;-75
2021/08/14 01:51:49;;;;;;;0.10;0.10;;;;;;;21.10;59.33;99658.00;5114183;28;20110;-75
2021/08/14 01:54:16;;;;;;;0.00;0.00;;;;;;;21.15;59.16;99648.81;5113177;28;20080;-75
2021/08/14 01:56:42;;;;;;;0.10;0.10;;;;;;;21.20;58.97;99643.19;5109945;27;20039;-76
2021/08/14 01:59:07;;;;;;;0.00;0.00;;;;;;;21.32;58.66;99645.16;5111223;28;20036;-75
2021/08/14 02:01:33;;;;;;;0.00;0.00;;;;;;;21.35;58.62;99649.94;5097049;28;20122;-76
2021/08/14 02:03:59;;;;;;;0.00;0.00;;;;;;;21.44;58.59;99652.56;5094673;28;20032;-76
2021/08/14 02:06:27;;;;;;;0.60;0.45;;;;;;;21.43;58.71;99649.06;5113194;28;20088;-76
2021/08/14 02:08:53;;;;;;;0.00;0.00;;;;;;;21.47;58.52;99646.47;5097716;28;20105;-77
2021/08/14 02:11:21;;;;;;;0.00;0.00;;;;;;;21.48;58.72;99644.53;5092456;28;20515;-77
2021/08/14 02:13:49;;;;;;;0.00;0.00;;;;;;;21.52;58.33;99646.28;5093994;28;20035;-79
2021/08/14 02:16:15;;;;;;;0.00;0.00;;;;;;;21.56;58.36;99647.22;5091942;28;20048;-77
2021/08/14 02:18:41;;;;;;;0.00;0.00;;;;;;;21.62;58.23;99649.72;5101100;28;20472;-77
2021/08/14 02:21:08;;;;;;;0.10;0.10;;;;;;;21.62;58.46;99647.81;5112548;28;20043;-76
2021/08/14 02:23:34;;;;;;;0.00;0.00;;;;;;;21.61;58.77;99639.97;5110816;28;20087;-78
2021/08/14 02:26:00;;;;;;;0.00;0.00;;;;;;;21.61;58.88;99643.50;5110801;28;20036;-77
2021/08/14 02:28:27;;;;;;;0.00;0.00;;;;;;;21.64;58.99;99633.84;5103653;28;20032;-77
2021/08/14 02:30:52;;;;;;;0.00;0.00;;;;;;;21.66;58.97;99645.22;5112587;28;20035;-77
2021/08/14 02:33:18;;;;;;;0.00;0.00;;;;;;;21.62;58.55;99638.81;5113345;28;20376;-77
2021/08/14 02:35:43;;;;;;;0.10;0.10;;;;;;;;;;5093742;27;20486;-77
2021/08/14 02:38:08;;;;;;;0.10;0.10;;;;;;;21.67;58.57;99644.09;5093494;28;20069;-77
2021/08/14 02:40:34;;;;;;;0.00;0.00;;;;;;;21.65;58.82;99633.50;5096604;28;20505;-79
2021/08/14 02:43:01;;;;;;;0.00;0.00;;;;;;;21.64;58.61;99633.84;5098610;28;20517;-78
2021/08/14 02:45:26;;;;;;;0.00;0.00;;;;;;;21.67;58.10;99631.25;5112253;28;20027;-76
2021/08/14 02:47:54;;;;;;;0.00;0.00;;;;;;;21.68;59.09;99629.31;5106859;28;20092;-80
2021/08/14 02:50:19;;;;;;;0.00;0.00;;;;;;;21.66;59.23;99626.16;5091617;28;20032;-80
2021/08/14 02:52:44;;;;;;;0.08;0.08;;;;;;;21.57;59.43;99624.31;5098750;28;20041;-77
2021/08/14 02:55:10;;;;;;;0.00;0.00;;;;;;;21.50;59.51;99623.25;5105603;28;20039;-78
2021/08/14 02:57:35;;;;;;;0.00;0.00;;;;;;;21.44;59.49;99623.44;5112044;27;20020;-79
2021/08/14 03:00:01;;;;;;;0.03;0.03;;;;;;;21.43;59.56;99626.50;5111832;28;20027;-81
2021/08/14 03:02:26;;;;;;;0.03;0.03;;;;;;;21.35;59.45;99614.56;5108560;27;20491;-78
2021/08/14 03:04:52;;;;;;;0.00;0.00;;;;;;;21.36;59.38;99626.25;5107583;28;20047;-78
2021/08/14 03:07:17;;;;;;;0.00;0.00;;;;;;;21.33;59.52;99626.94;5110845;28;20084;-77
2021/08/14 03:09:42;;;;;;;0.00;0.00;;;;;;;21.28;59.77;99625.97;5091685;28;20119;-78
2021/08/14 03:12:08;;;;;;;0.00;0.00;;;;;;;21.27;59.72;99626.31;5103794;28;20030;-76
2021/08/14 03:14:33;;;;;;;0.10;0.10;;;;;;;21.24;59.99;99632.44;5111391;28;20130;-74
2021/08/14 03:16:59;;;;;;;0.00;0.00;;;;;;;21.22;59.60;99619.16;5108396;28;20055;-75
2021/08/14 03:19:24;;;;;;;0.00;0.00;;;;;;;21.22;59.94;99631.97;5123696;27;20038;-75
2021/08/14 03:21:50;;;;;;;0.05;0.05;;;;;;;21.20;60.23;99632.31;5133340;27;20023;-75
2021/08/14 03:24:16;;;;;;;0.10;0.10;;;;;;;21.18;60.61;99631.03;5112030;27;20032;-75
2021/08/14 03:26:41;;;;;;;0.00;0.00;;;;;;;21.18;60.35;99629.13;5098157;28;20028;-74
2021/08/14 03:29:07;;;;;;;0.00;0.00;;;;;;;21.18;60.18;99629.13;5104613;28;20036;-75
2021/08/14 03:31:32;;;;;;;0.00;0.00;;;;;;;21.17;60.15;99630.25;5104998;28;20069;-77
2021/08/14 03:33:58;;;;;;;0.10;0.10;;;;;;;21.15;60.17;99635.22;5092058;28;20031;-74
2021/08/14 03:36:23;;;;;;;0.10;0.10;;;;;;;21.18;60.38;99628.31;5091881;28;20102;-78
2021/08/14 03:38:49;;;;;;;0.03;0.03;;;;;;;21.26;60.24;99630.16;5091229;28;20507;-77
2021/08/14 03:41:14;;;;;;;0.00;0.00;;;;;;;21.35;59.91;99641.78;5098015;28;20039;-76
2021/08/14 03:43:39;;;;;;;0.00;0.00;;;;;;;21.43;59.68;99632.75;5098843;28;20402;-75
2021/08/14 03:46:05;;;;;;;0.10;0.10;;;;;;;21.59;59.31;99638.38;5094622;28;20107;-75
2021/08/14 03:48:31;;;;;;;0.00;0.00;;;;;;;21.78;58.83;99626.19;5098355;28;20165;-75
2021/08/14 03:50:57;;;;;;;0.00;0.00;;;;;;;21.96;58.06;99632.22;5104722;27;20071;-76
2021/08/14 03:53:23;;;;;;;0.10;0.10;;;;;;;22.18;57.84;99638.34;5124470;27;20519;-76
2021/08/14 03:55:48;;;;;;;0.10;0.10;;;;;;;22.39;56.98;99641.03;5108734;28;20138;-74
2021/08/14 03:58:14;;;;;;;0.00;0.00;;;;;;;22.62;56.41;99641.34;5098060;28;20024;-75
2021/08/14 04:00:39;;;;;;;0.00;0.00;;;;;;;22.89;55.73;99639.03;5095082;27;20032;-78
2021/08/14 04:03:04;;;;;;;0.00;0.00;;;;;;;23.20;54.63;99642.28;5113180;27;20063;-79
2021/08/14 04:05:30;;;;;;;0.20;0.15;;;;;;;23.44;54.08;99636.72;5103781;28;20110;-78
2021/08/14 04:07:55;;;;;;;0.00;0.00;;;;;;;23.72;53.30;99630.44;5108677;27;20027;-78
2021/08/14 04:10:21;;;;;;;0.00;0.00;;;;;;;23.88;52.73;99633.16;5096469;28;20020;-76
2021/08/14 04:12:47;;;;;;;0.00;0.00;;;;;;;24.05;52.28;99634.00;5110674;28;20487;-78
2021/08/14 04:15:12;;;;;;;0.00;0.00;;;;;;;24.18;51.86;99634.69;5110047;28;20085;-76
2021/08/14 04:17:38;;;;;;;0.00;0.00;;;;;;;24.22;51.46;99638.31;5099856;28;20115;-78
2021/08/14 04:20:05;;;;;;;0.00;0.00;;;;;;;24.23;51.26;99637.97;5100696;28;20070;-76
2021/08/14 04:22:31;;;;;;;0.00;0.00;;;;;;;24.28;50.96;99650.56;5105550;28;20495;-77
2021/08/14 04:24:57;;;;;;;0.00;0.00;;;;;;;24.32;50.97;99640.50;5108195;28;20067;-77
2021/08/14 04:27:22;;;;;;;0.00;0.00;;;;;;;24.37;50.82;99644.91;5090836;28;20470;-76
2021/08/14 04:29:48;;;;;;;0.00;0.00;;;;;;;24.43;50.58;99648.97;5091009;28;20073;-76
2021/08/14 04:32:14;;;;;;;0.00;0.00;;;;;;;24.55;50.25;99650.81;5108071;28;20051;-78
2021/08/14 04:34:39;;;;;;;0.00;0.00;;;;;;;24.65;50.20;99655.72;5105239;28;20038;-78
2021/08/14 04:37:04;;;;;;;0.00;0.00;;;;;;;24.69;49.77;99647.63;5095600;28;20024;-78
2021/08/14 04:39:30;;;;;;;0.00;0.00;;;;;;;24.83;49.70;99647.94;5106729;28;20032;-78
2021/08/14 04:41:55;;;;;;;0.00;0.00;;;;;;;25.14;49.15;99657.19;5105069;28;20039;-77
2021/08/14 04:44:21;;;;;;;0.00;0.00;;;;;;;25.42;49.00;99656.97;5099560;28;20032;-78
2021/08/14 04:46:46;;;;;;;0.00;0.00;;;;;;;25.80;48.39;99643.59;5101141;28;20388;-77
2021/08/14 04:49:12;;;;;;;0.00;0.00;;;;;;;26.26;47.18;99651.03;5098736;28;20509;-77
2021/08/14 04:51:37;;;;;;;0.00;0.00;;;;;;;26.73;45.68;99657.19;5101721;28;20447;-76
2021/08/14 04:54:03;;;;;;;0.00;0.00;;;;;;;27.16;44.91;99654.28;5105315;28;20035;-77
2021/08/14 04:56:28;;;;;;;0.00;0.00;;;;;;;27.58;44.24;99658.69;5103841;28;20049;-76
2021/08/14 04:58:54;;;;;;;0.00;0.00;;;;;;;27.99;43.28;99660.66;5097610;28;20402;-76
2021/08/14 05:01:20;;;;;;;0.00;0.00;;;;;;;28.38;42.25;99651.16;5101826;28;20028;-77
2021/08/14 05:03:45;;;;;;;0.00;0.00;;;;;;;28.48;41.26;99650.44;5099049;28;20036;-79
2021/08/14 05:06:11;;;;;;;0.32;0.32;;;;;;;28.42;41.72;99655.50;5115395;27;20097;-79
2021/08/14 05:08:36;;;;;;;0.22;0.22;;;;;;;28.39;41.41;99663.72;5114074;28;20540;-78
2021/08/14 05:11:03;;;;;;;0.00;0.00;;;;;;;28.31;41.32;99662.09;5108798;28;20020;-77
2021/08/14 05:13:28;;;;;;;0.00;0.00;;;;;;;28.25;41.68;99650.69;5094545;28;20111;-76
2021/08/14 05:15:54;;;;;;;0.00;0.00;;;;;;;28.36;41.60;99659.00;5105224;28;20505;-77
2021/08/14 05:18:19;;;;;;;0.35;0.35;;;;;;;28.49;41.36;99656.72;5107451;28;20102;-78
2021/08/14 05:20:45;;;;;;;0.00;0.00;;;;;;;28.62;40.69;99654.47;5096149;28;20034;-78
2021/08/14 05:23:10;;;;;;;0.00;0.00;;;;;;;28.60;40.70;99650.13;5103774;28;20479;-76
2021/08/14 05:25:36;;;;;;;0.13;0.13;;;;;;;28.77;40.25;99645.13;5104576;28;20032;-77
2021/08/14 05:28:01;;;;;;;0.00;0.00;;;;;;;28.75;40.17;99647.50;5098819;28;20024;-75
2021/08/14 05:30:27;;;;;;;0.10;0.10;;;;;;;28.80;40.55;99649.09;5095329;28;20035;-78
2021/08/14 05:32:53;;;;;;;0.10;0.10;;;;;;;28.86;40.16;99650.31;5094408;28;20035;-76
2021/08/14 05:35:18;;;;;;;0.00;0.00;;;;;;;28.89;40.15;99652.28;5100364;27;20487;-77
2021/08/14 05:37:44;;;;;;;0.10;0.10;;;;;;;28.94;39.38;99654.66;5107868;28;20024;-77
2021/08/14 05:40:10;;;;;;;0.47;0.47;;;;;;;28.90;39.30;99651.88;5094252;28;20060;-77
2021/08/14 05:42:35;;;;;;;0.00;0.00;;;;;;;28.99;39.29;99659.81;5112647;28;20402;-77
2021/08/14 05:45:01;;;;;;;0.10;0.10;;;;;;;29.05;39.26;99663.75;5112132;28;20027;-75
2021/08/14 05:47:26;;;;;;;0.10;0.10;;;;;;;29.12;39.50;99659.47;5105985;28;20526;-76
2021/08/14 05:49:52;;;;;;;0.10;0.10;;;;;;;29.12;39.65;99656.72;5114090;28;20028;-74
2021/08/14 05:52:18;;;;;;;0.10;0.10;;;;;;;29.21;39.87;99660.69;5108714;27;20024;-77
2021/08/14 05:54:43;;;;;;;0.22;0.22;;;;;;;29.21;39.82;99655.16;5113610;28;20024;-75
2021/08/14 05:57:08;;;;;;;0.10;0.10;;;;;;;29.21;39.90;99660.69;5103365;28;20569;-75
2021/08/14 05:59:34;;;;;;;0.10;0.10;;;;;;;29.31;39.67;99658.34;5093761;28;20483;-78
2021/08/14 06:01:59;;;;;;;0.20;0.20;;;;;;;29.41;39.16;99646.59;5102486;28;20035;-78
2021/08/14 06:04:25;;;;;;;0.00;0.00;;;;;;;29.33;38.55;99647.75;5114135;28;20062;-79
2021/08/14 06:06:50;;;;;;;0.08;0.08;;;;;;;29.13;39.10;99658.28;5110276;28;20027;-78
2021/08/14 06:09:16;;;;;;;0.00;0.00;;;;;;;28.85;39.31;99646.75;5109160;28;20042;-76
2021/08/14 06:11:41;;;;;;;0.05;0.05;;;;;;;28.56;39.87;99654.03;5103608;28;20055;-77
2021/08/14 06:14:07;;;;;;;0.10;0.10;;;;;;;28.32;40.78;99652.69;5113072;28;20407;-77
2021/08/14 06:16:33;;;;;;;0.70;0.70;;;;;;;28.06;41.14;99646.19;5105138;28;20028;-76
2021/08/14 06:18:58;;;;;;;0.10;0.10;;;;;;;27.99;41.36;99654.34;5096630;28;20478;-75
2021/08/14 06:21:24;;;;;;;0.00;0.00;;;;;;;27.77;41.32;99651.41;5109963;28;20379;-75
2021/08/14 06:23:49;;;;;;;0.15;0.15;;;;;;;27.60;41.98;99650.06;5109492;28;20062;-77
2021/08/14 06:26:15;;;;;;;0.20;0.20;;;;;;;27.64;42.09;99648.16;5101051;28;20055;-75
2021/08/14 06:28:41;;;;;;;0.15;0.15;;;;;;;27.69;42.37;99650.56;5100601;28;20038;-76
2021/08/14 06:31:06;;;;;;;0.10;0.10;;;;;;;27.77;42.16;99649.47;5109883;28;20023;-76
2021/08/14 06:33:31;;;;;;;0.10;0.10;;;;;;;27.80;42.63;99643.19;5103270;28;20563;-75
2021/08/14 06:35:57;;;;;;;0.10;0.10;;;;;;;27.84;41.78;99648.72;5110017;28;20089;-74
2021/08/14 06:38:22;;;;;;;0.00;0.00;;;;;;;27.89;41.68;99644.84;5100467;28;20027;-73
2021/08/14 06:40:48;;;;;;;0.00;0.00;;;;;;;27.94;42.15;99647.25;5113549;28;20055;-74
2021/08/14 06:43:13;;;;;;;0.32;0.32;;;;;;;28.15;41.72;99649.44;5113282;28;20398;-78
2021/08/14 06:45:39;;;;;;;0.08;0.08;;;;;;;28.39;41.78;99649.97;5112276;28;20038;-77
2021/08/14 06:48:04;;;;;;;0.00;0.00;;;;;;;28.67;40.66;99649.38;5113464;28;20035;-78
2021/08/14 06:50:30;;;;;;;1.65;0.20;;;;;;;28.78;40.37;99640.44;5110900;28;20033;-75
2021/08/14 06:52:56;;;;;;;0.13;0.13;;;;;;;28.81;40.54;99634.13;5113624;28;20115;-73
2021/08/14 06:55:21;;;;;;;0.00;0.00;;;;;;;28.89;40.79;99631.06;5112080;28;20112;-74
2021/08/14 06:57:47;;;;;;;0.00;0.00;;;;;;;28.96;40.01;99635.00;5092482;28;20115;-74
2021/08/14 07:00:13;;;;;;;0.32;0.20;;;;;;;28.95;39.57;99636.97;5107179;28;20054;-73
2021/08/14 07:02:41;;;;;;;0.00;0.00;;;;;;;28.90;39.34;99635.34;5112605;28;20039;-73
2021/08/14 07:05:08;;;;;;;0.00;0.00;;;;;;;28.92;38.93;99629.50;5112349;28;20031;-75
2021/08/14 07:07:33;;;;;;;0.00;0.00;;;;;;;28.91;38.89;99633.41;5100557;28;20406;-73
2021/08/14 07:10:00;;;;;;;0.00;0.00;;;;;;;28.91;38.85;99631.44;5092601;28;20107;-75
2021/08/14 07:12:26;;;;;;;0.00;0.00;;;;;;;28.96;39.49;99637.75;5092800;28;20040;-76
2021/08/14 07:14:51;;;;;;;0.00;0.00;;;;;;;29.06;39.82;99631.50;5091017;28;20509;-77
2021/08/14 07:17:16;;;;;;;0.05;0.05;;;;;;;29.08;38.77;99635.44;5092383;28;20605;-76
2021/08/14 07:19:42;;;;;;;0.00;0.00;;;;;;;29.13;38.41;99628.00;5091354;28;20105;-78
2021/08/14 07:22:07;;;;;;;0.00;0.00;;;;;;;29.11;37.47;99633.88;5109788;28;20034;-82
2021/08/14 07:24:33;;;;;;;0.00;0.00;;;;;;;28.99;37.34;99629.53;5104447;28;20023;-77
2021/08/14 07:26:59;;;;;;;0.10;0.10;;;;;;;28.97;37.91;99631.09;5094852;28;20457;-80
2021/08/14 07:29:25;;;;;;;1.08;0.75;;;;;;;29.01;37.93;99624.41;5090895;28;20119;-79
2021/08/14 07:31:51;;;;;;;0.00;0.00;;;;;;;28.98;37.75;99621.63;5092172;28;20028;-78
2021/08/14 07:34:17;;;;;;;0.00;0.00;;;;;;;28.86;37.20;99629.06;5090623;28;20388;-76
2021/08/14 07:36:42;;;;;;;0.40;0.40;;;;;;;28.65;36.27;99623.41;5092188;28;20118;-75
2021/08/14 07:39:07;;;;;;;0.00;0.00;;;;;;;28.43;36.79;99631.56;5092031;28;20104;-74
2021/08/14 07:41:33;;;;;;;0.00;0.00;;;;;;;28.24;37.95;99630.63;5105542;28;20062;-83
2021/08/14 07:43:58;;;;;;;0.00;0.00;;;;;;;28.19;37.71;99619.22;5110333;28;20024;-76
2021/08/14 07:46:24;;;;;;;0.35;0.35;;;;;;;28.16;38.57;99630.97;5095974;28;20035;-79
2021/08/14 07:48:49;;;;;;;0.00;0.00;;;;;;;28.08;38.03;99635.63;5111184;28;20023;-78
2021/08/14 07:51:15;;;;;;;0.38;0.30;;;;;;;28.09;39.38;99629.72;5103955;28;20532;-75
2021/08/14 07:53:40;;;;;;;0.17;0.17;;;;;;;28.22;39.61;99621.19;5096946;28;20027;-73
2021/08/14 07:56:05;;;;;;;0.10;0.10;;;;;;;28.24;37.62;99633.38;5112163;28;20032;-72
2021/08/14 07:58:33;;;;;;;0.00;0.00;;;;;;;28.17;36.95;99625.06;5091169;28;20419;-73
2021/08/14 08:00:59;;;;;;;0.40;0.35;;;;;;;28.16;36.42;99628.22;5091745;28;20067;-73
2021/08/14 08:03:24;;;;;;;0.10;0.10;;;;;;;28.09;37.26;99632.47;5091143;28;20546;-72
2021/08/14 08:05:49;;;;;;;0.05;0.05;;;;;;;28.15;37.51;99629.38;5091499;28;20036;-75
2021/08/14 08:08:15;;;;;;;0.00;0.00;;;;;;;28.24;36.73;99629.84;5091612;28;20031;-73
2021/08/14 08:10:40;;;;;;;0.10;0.10;;;;;;;28.26;37.85;99622.78;5091577;28;20110;-73
2021/08/14 08:13:06;;;;;;;0.00;0.00;;;;;;;28.38;37.04;99613.44;5091654;28;20104;-75
2021/08/14 08:15:31;;;;;;;0.00;0.00;;;;;;;28.50;36.35;99619.78;5093387;27;20032;-72
2021/08/14 08:17:56;;;;;;;0.10;0.10;;;;;;;28.52;35.59;99611.94;5111723;28;20088;-74
2021/08/14 08:20:22;;;;;;;0.00;0.00;;;;;;;28.47;34.58;99618.59;5110511;28;20114;-73
2021/08/14 08:22:48;;;;;;;0.00;0.00;;;;;;;28.31;34.15;99618.09;5097135;28;20103;-74
2021/08/14 08:25:15;;;;;;;0.10;0.10;;;;;;;28.23;33.92;99622.75;5108465;28;20034;-77
2021/08/14 08:27:43;;;;;;;0.13;0.13;;;;;;;28.26;34.35;99616.50;5109995;28;20038;-80
2021/08/14 08:30:11;;;;;;;0.15;0.15;;;;;;;28.31;34.85;99615.34;5103144;28;20509;-80
2021/08/14 08:32:38;;;;;;;0.17;0.17;;;;;;;28.24;34.75;99619.63;5093484;28;20055;-81
2021/08/14 08:35:05;;;;;;;0.38;0.38;;;;;;;28.14;34.41;99625.03;5113230;27;20031;-80
2021/08/14 08:37:31;;;;;;;0.17;0.17;;;;;;;28.03;35.37;99608.47;5109909;28;20552;-78
2021/08/14 08:39:57;;;;;;;0.55;0.55;;;;;;;28.04;36.44;99608.06;5100711;28;20028;-78
2021/08/14 08:42:23;;;;;;;0.10;0.10;;;;;;;27.96;36.33;99611.94;5090968;28;20024;-77
2021/08/14 08:44:48;;;;;;;0.10;0.10;;;;;;;27.95;36.55;99608.41;5094229;28;20024;-79
2021/08/14 08:47:16;;;;;;;0.28;0.28;;;;;;;27.96;37.15;99604.47;5089810;28;20479;-78
2021/08/14 08:49:51;;;;;;;0.57;0.40;;;;;;;28.04;36.21;99610.00;5089505;28;20032;-78
2021/08/14 08:52:16;;;;;;;0.10;0.10;;;;;;;27.88;35.42;99611.09;5089732;28;20020;-79
2021/08/14 08:54:42;;;;;;;0.90;0.90;;;;;;;27.85;36.49;99589.06;5090815;28;20035;-79
2021/08/14 08:57:07;;;;;;;0.35;0.35;;;;;;;27.83;36.10;99594.16;5089638;28;20107;-78
2021/08/14 08:59:32;;;;;;;0.20;0.20;;;;;;;27.81;35.93;99608.28;5089525;28;20471;-79
2021/08/14 09:01:58;;;;;;;0.73;0.73;;;;;;;27.83;35.98;99600.44;5091085;28;20016;-79
2021/08/14 09:04:23;;;;;;;0.73;0.73;;;;;;;27.88;36.23;99588.28;5089461;28;20028;-79
2021/08/14 09:06:49;;;;;;;0.03;0.03;;;;;;;27.84;36.04;99582.00;5091088;28;20550;-79
2021/08/14 09:09:14;;;;;;;0.13;0.13;;;;;;;27.90;37.06;99574.97;5089603;28;20467;-79
2021/08/14 09:11:50;;;;;;;0.13;0.13;;;;;;;27.99;36.00;99578.19;5089325;28;20407;-79
2021/08/14 09:14:16;;;;;;;0.08;0.08;;;;;;;28.07;35.97;99568.06;5090710;28;20082;-79
2021/08/14 09:16:42;;;;;;;0.35;0.22;;;;;;;28.16;36.50;99576.78;5090646;28;20471;-79
2021/08/14 09:19:08;;;;;;;0.30;0.30;;;;;;;28.23;36.09;99570.50;5089422;28;20024;-79
2021/08/14 09:21:41;;;;;;;1.95;0.80;;;;;;;28.02;36.02;99571.13;5089369;28;20024;-79
2021/08/14 09:24:08;;;;;;;0.10;0.10;;;;;;;28.00;36.46;99563.25;5090736;28;20057;-79
2021/08/14 09:26:46;;;;;;;0.55;0.55;;;;;;;28.02;37.27;99562.88;5089211;28;20031;-78
2021/08/14 09:29:12;;;;;;;0.00;0.00;;;;;;;28.05;36.72;99559.38;5090470;28;20035;-78
2021/08/14 09:31:46;;;;;;;4.10;0.20;;;;;;;28.15;37.20;99547.69;5090760;28;20033;-78
2021/08/14 09:34:20;;;;;;;0.20;0.20;;;;;;;28.19;36.36;99547.72;5090710;28;20032;-79
2021/08/14 09:36:58;;;;;;;1.95;0.50;;;;;;;28.18;36.90;99541.41;5090330;28;20031;-78
2021/08/14 09:39:23;;;;;;;0.40;0.40;;;;;;;28.25;36.67;99546.19;5090492;28;20039;-78
2021/08/14 09:42:09;;;;;;;0.00;0.00;;;;;;;28.26;36.51;99534.78;5089307;28;20024;-78
2021/08/14 09:44:36;;;;;;;0.30;0.30;;;;;;;28.37;37.11;99545.03;5090433;28;20042;-79
2021/08/14 09:47:09;;;;;;;0.10;0.10;;;;;;;28.31;35.68;99543.84;5089275;28;20032;-79
2021/08/14 09:49:55;;;;;;;0.10;0.10;;;;;;;28.32;35.85;99539.91;5090216;28;20107;-78
2021/08/14 09:52:23;;;;;;;0.00;0.00;;;;;;;28.30;35.44;99536.78;5092628;28;20043;-78
2021/08/14 09:54:49;;;;;;;6.50;0.35;;;;;;;28.41;35.93;99529.38;5092911;28;20491;-78
2021/08/14 09:57:16;;;;;;;0.10;0.10;;;;;;;28.55;36.13;99526.69;5092799;28;20522;-79
2021/08/14 09:59:44;;;;;;;0.20;0.20;;;;;;;28.72;35.75;99540.91;5093948;28;20031;-78
2021/08/14 10:02:14;;;;;;;;;;;;;;;28.71;34.89;99526.38;5093094;28;20024;-78
2021/08/14 10:04:39;;;;;;;0.22;0.22;;;;;;;28.79;34.23;99518.16;5092471;28;19968;-78
2021/08/14 10:07:05;;;;;;;0.95;0.85;;;;;;;28.77;33.81;99529.53;5093908;28;20107;-79
2021/08/14 10:09:30;;;;;;;0.10;0.10;;;;;;;28.74;34.04;99514.59;5093777;28;20437;-78
2021/08/14 10:11:56;;;;;;;0.38;0.38;;;;;;;28.68;34.09;99513.38;5092658;28;20028;-78
2021/08/14 10:14:22;;;;;;;0.20;0.20;;;;;;;28.60;34.14;99503.53;5093861;28;20080;-78
2021/08/14 10:16:47;;;;;;;0.20;0.20;;;;;;;28.54;33.65;99505.03;5092328;28;20172;-78
2021/08/14 10:19:13;;;;;;;0.10;0.10;;;;;;;28.60;33.60;99501.53;5092475;28;20042;-78
2021/08/14 10:21:39;;;;;;;0.05;0.05;;;;;;;28.66;34.20;99501.97;5092165;28;20080;-79
2021/08/14 10:24:05;;;;;;;0.40;0.32;;;;;;;28.61;32.80;99505.06;5092405;28;20462;-78
2021/08/14 10:26:31;;;;;;;4.20;0.40;;;;;;;28.64;32.93;99489.75;5093169;28;20046;-79
2021/08/14 10:28:58;;;;;;;0.10;0.10;;;;;;;28.62;33.01;99508.63;5092307;28;20024;-78
2021/08/14 10:31:29;;;;;;;1.90;1.38;;;;;;;28.67;33.30;99495.25;5094104;28;20394;-79
2021/08/14 10:33:55;;;;;;;0.00;0.00;;;;;;;28.67;33.54;99478.75;5092409;28;20433;-79
2021/08/14 10:36:21;;;;;;;0.00;0.00;;;;;;;28.72;33.67;99478.44;5093145;28;20478;-78
2021/08/14 10:38:50;;;;;;;0.13;0.13;;;;;;;28.83;32.99;99477.66;5093029;28;20031;-79
2021/08/14 10:41:15;;;;;;;0.20;0.20;;;;;;;28.90;32.35;99483.94;5093416;28;20384;-78
2021/08/14 10:43:59;;;;;;;0.45;0.45;;;;;;;28.97;31.79;99468.66;5091991;28;20024;-79
2021/08/14 10:46:31;;;;;;;0.47;0.47;;;;;;;29.07;31.85;99471.41;5093559;28;20556;-79
2021/08/14 10:48:57;;;;;;;0.65;0.30;;;;;;;29.14;32.09;99456.88;5093204;28;20035;-79
2021/08/14 10:51:23;;;;;;;0.20;0.20;;;;;;;29.29;32.16;99473.41;5092958;28;20024;-79
2021/08/14 10:53:51;;;;;;;0.20;0.20;;;;;;;29.29;31.29;99463.16;5092610;28;20020;-79
2021/08/14 10:56:53;;;;;;;0.30;0.30;;;;;;;29.33;30.95;99464.00;5093138;28;20020;-79
2021/08/14 10:59:39;;;;;;;0.10;0.10;;;;;;;29.34;31.52;99465.53;5092765;28;20395;-78
2021/08/14 11:02:28;;;;;;;0.00;0.00;;;;;;;29.37;30.95;99462.00;5092543;28;20020;-78
2021/08/14 11:04:55;;;;;;;0.38;0.38;;;;;;;29.42;30.95;99446.25;5091375;28;20035;-78
2021/08/14 11:07:20;;;;;;;0.00;0.00;;;;;;;29.50;31.49;99456.91;5093040;28;20034;-79
2021/08/14 11:09:52;;;;;;;0.00;0.00;;;;;;;29.53;31.06;99450.59;5091526;28;20583;-79
2021/08/14 11:12:30;;;;;;;0.13;0.13;;;;;;;29.48;30.41;99451.00;5091502;28;20028;-79
2021/08/14 11:15:13;;;;;;;0.10;0.10;;;;;;;29.45;30.52;99446.25;5092430;28;20036;-78
2021/08/14 11:17:38;;;;;;;0.75;0.75;;;;;;;29.32;30.40;99467.94;5092340;28;20028;-78
2021/08/14 11:20:04;;;;;;;0.52;0.52;;;;;;;29.21;30.73;99443.09;5092437;28;20540;-78
2021/08/14 11:22:32;;;;;;;0.80;0.47;;;;;;;29.21;31.25;99437.59;5092766;28;20036;-78
2021/08/14 11:25:01;;;;;;;0.65;0.65;;;;;;;29.28;31.25;99447.81;5092614;28;20106;-78
2021/08/14 11:27:29;;;;;;;0.00;0.00;;;;;;;29.32;31.11;99436.81;5092464;28;20073;-78
2021/08/14 11:30:00;;;;;;;0.00;0.00;;;;;;;29.42;30.91;99444.31;5090998;28;20506;-78
2021/08/14 11:32:28;;;;;;;0.35;0.35;;;;;;;29.45;30.27;99438.00;5090976;28;20020;-78